Lakota, ND (58344)

12:15 PM CDT on October 23, 2014 (GMT -0500)
Devils Lake Municipal | Change Station
CLOSE
Current Station
Airport
Location: Devils Lake,
Elevation: 1453 ft
Nearby Weather Stations

Elev 1453 ft 48.11 °N, 98.91 °W | Updated 20 minutes ago

Clear
Clear
57 °F
Feels Like 57 °F
N
9
Wind Variable Wind from SW

Today
High -- | Low -- °F
--% Chance of Precip.
Yesterday
High -- | Low -- °F
Precip. -- in
8:04 AM 6:29 PM
Waning Crescent, 0% visible
Pressure 29.83 in
Visibility 10.0 miles
Clouds Clear
Dew Point 37 °F
Humidity 48%
Rainfall 0.00 in
Snow Depth Not available.
UV 3 out of 12
Pollen .90 out of 12
Air Quality Not available.
Flu Activity Local Activity
METAR KDVL 231655Z AUTO 23008KT 10SM CLR 14/03 A2983 RMK AO1

More Conditions Fewer Conditions

Pressure 29.83 in
Visibility 10.0 miles
Clouds Clear
Dew Point 37 °F
Humidity 48%
Rainfall 0.00 in
Snow Depth Not available.
UV 3 out of 12
Pollen .90 out of 12
Air Quality Not available.
Flu Activity Local Activity
METAR KDVL 231655Z AUTO 23008KT 10SM CLR 14/03 A2983 RMK AO1

More Conditions Fewer Conditions

10-Day Weather Forecast

Almanac

Astronomy

Oct. 23, 2014 Rise Set
Actual Time 8:04 AM CDT 6:29 PM CDT
Civil Twilight 7:32 AM CDT 7:01 PM CDT
Nautical Twilight 6:56 AM CDT 7:37 PM CDT
Astronomical Twilight 6:20 AM CDT 8:13 PM CDT
Moon 7:44 AM CDT 6:32 PM CDT
Length of Visible Light 11h 28m
Length of Day
10h 25m
Tomorrow will be 3m 17s shorter.
Waning Crescent, 0% of the Moon is Illuminated
Today
Waning Crescent
Oct 23
New
Oct 30
First Quarter
Nov 6
Full
Nov 14
Last Quarter

Today's Extremes

State Highs State Lows

Community

WunderPhotos

Upload Photos

1,764,316 photos uploaded!

WunderBlogs® & News

Nearby

Snow Depth

Station Depth Elevation
No new snow has been reported.

Earthquake Activity

City Distance Mag. Time & Date
No recent earthquake activity has been reported nearby.
Minimum magnitude displayed is 2.5.

Coastal Water Temperatures

Place Temperature
No Stations Reporting

Nearby Weather Stations